Time;durP1;ratioP1;P1;durP2;ratioP2;P2;SDS_P1;SDS_P2;PMS_P1;PMS_P2;Temp;Humidity;BMP_temperature;BMP_pressure;BME280_temperature;BME280_humidity;BME280_pressure;Samples;Min_cycle;Max_cycle;Signal;HPM_P1;HPM_P2
2022/10/10 00:00:35;;;;;;;6.60;4.75;;;9.60;99.90;;;;;;5094065;28;20052;-64
2022/10/10 00:03:01;;;;;;;5.68;3.85;;;9.60;99.90;;;;;;5081566;28;20044;-64
2022/10/10 00:05:26;;;;;;;6.80;4.40;;;9.80;99.90;;;;;;5087994;28;20041;-64
2022/10/10 00:07:52;;;;;;;6.72;4.70;;;9.60;99.90;;;;;;5085554;28;20222;-64
2022/10/10 00:10:18;;;;;;;6.97;4.03;;;;;;;;;;5080975;28;20403;-64
2022/10/10 00:12:44;;;;;;;5.97;4.30;;;9.50;99.90;;;;;;5094869;28;20070;-64
2022/10/10 00:15:12;;;;;;;6.32;4.28;;;9.50;99.90;;;;;;5093852;28;20152;-64
2022/10/10 00:17:37;;;;;;;7.38;4.82;;;9.60;99.90;;;;;;5087340;28;20491;-63
2022/10/10 00:20:04;;;;;;;6.20;4.35;;;;;;;;;;5087687;28;20043;-64
2022/10/10 00:22:29;;;;;;;10.43;4.45;;;9.60;99.90;;;;;;5094759;28;20043;-64
2022/10/10 00:24:55;;;;;;;4.85;4.15;;;9.50;99.90;;;;;;5094980;28;20039;-65
2022/10/10 00:27:20;;;;;;;7.05;4.65;;;9.30;99.90;;;;;;5093736;28;20039;-63
2022/10/10 00:29:46;;;;;;;5.45;4.55;;;9.40;99.90;;;;;;5086133;28;20573;-64
2022/10/10 00:32:11;;;;;;;6.20;4.28;;;9.20;99.90;;;;;;5089601;28;20071;-64
2022/10/10 00:34:37;;;;;;;7.25;4.38;;;9.40;99.90;;;;;;5093543;28;20040;-64
2022/10/10 00:37:02;;;;;;;8.38;4.85;;;9.60;99.90;;;;;;5094693;28;20044;-64
2022/10/10 00:39:28;;;;;;;8.77;4.93;;;9.50;99.90;;;;;;5094561;28;20043;-64
2022/10/10 00:41:54;;;;;;;7.15;5.20;;;;;;;;;;5094583;28;20043;-64
2022/10/10 00:44:19;;;;;;;9.15;4.22;;;9.50;99.90;;;;;;5094583;28;20040;-64
2022/10/10 00:46:45;;;;;;;7.18;4.57;;;9.40;99.90;;;;;;5093357;28;20478;-63
2022/10/10 00:49:14;;;;;;;6.35;3.97;;;;;;;;;;5093266;28;20039;-64
2022/10/10 00:51:42;;;;;;;6.35;4.53;;;9.30;99.90;;;;;;5094662;28;20390;-64
2022/10/10 00:54:09;;;;;;;7.80;4.38;;;9.20;99.90;;;;;;5093328;28;20047;-64
2022/10/10 00:56:49;;;;;;;9.10;4.57;;;9.30;99.90;;;;;;5094455;28;20062;-64
2022/10/10 00:59:15;;;;;;;7.50;4.75;;;9.20;99.90;;;;;;5094719;28;20127;-64
2022/10/10 01:01:41;;;;;;;10.35;5.47;;;9.20;99.90;;;;;;5094031;28;20058;-64
2022/10/10 01:04:43;;;;;;;5.60;4.90;;;9.30;99.90;;;;;;5094103;28;20545;-64
2022/10/10 01:07:13;;;;;;;8.02;4.30;;;9.20;99.90;;;;;;5092879;28;20115;-64
2022/10/10 01:09:42;;;;;;;7.82;4.90;;;9.20;99.90;;;;;;5092835;28;20048;-63
2022/10/10 01:12:29;;;;;;;8.57;4.85;;;9.30;99.90;;;;;;5092767;28;20054;-63
2022/10/10 01:15:09;;;;;;;10.68;6.38;;;9.20;99.90;;;;;;5094088;28;20043;-64
2022/10/10 01:17:41;;;;;;;6.80;4.95;;;9.20;99.90;;;;;;5072499;28;20043;-63
2022/10/10 01:20:19;;;;;;;7.60;5.40;;;9.20;99.90;;;;;;5073746;28;20043;-64
2022/10/10 01:22:54;;;;;;;6.60;4.97;;;9.10;99.90;;;;;;5091887;28;20052;-64
2022/10/10 01:25:28;;;;;;;7.68;5.03;;;9.00;99.90;;;;;;5092518;28;20042;-65
2022/10/10 01:28:10;;;;;;;6.55;4.45;;;9.20;99.90;;;;;;5092453;28;20054;-64
2022/10/10 01:30:38;;;;;;;9.18;5.57;;;9.10;99.90;;;;;;5092502;28;20120;-63
2022/10/10 01:33:11;;;;;;;7.03;4.80;;;9.10;99.90;;;;;;5093833;28;20105;-63
2022/10/10 01:35:58;;;;;;;10.50;5.20;;;9.00;99.90;;;;;;5092584;28;20051;-64
2022/10/10 01:38:36;;;;;;;10.48;5.70;;;9.00;99.90;;;;;;5093650;28;20047;-64
2022/10/10 01:41:20;;;;;;;6.93;5.43;;;9.10;99.90;;;;;;5092336;28;20051;-64
2022/10/10 01:43:55;;;;;;;11.50;4.90;;;9.00;99.90;;;;;;5081463;28;20052;-64
2022/10/10 01:46:20;;;;;;;8.80;5.07;;;8.90;99.90;;;;;;5091359;28;20174;-64
2022/10/10 01:48:50;;;;;;;11.63;6.07;;;9.00;99.90;;;;;;5092452;28;20508;-64
2022/10/10 01:51:39;;;;;;;6.72;5.10;;;9.00;99.90;;;;;;5092123;28;20044;-64
2022/10/10 01:54:26;;;;;;;8.77;4.57;;;9.00;99.90;;;;;;5092373;28;20513;-64
2022/10/10 01:57:15;;;;;;;9.20;5.07;;;8.90;99.90;;;;;;5077803;28;20040;-65
2022/10/10 02:00:05;;;;;;;6.95;5.45;;;8.80;99.90;;;;;;5092100;28;20093;-64
2022/10/10 02:03:08;;;;;;;10.57;5.43;;;8.80;99.90;;;;;;5093296;28;20448;-64
2022/10/10 02:05:49;;;;;;;10.68;5.28;;;8.60;99.90;;;;;;5072362;28;20090;-64
2022/10/10 02:08:32;;;;;;;13.98;5.70;;;8.90;99.90;;;;;;5071922;28;20048;-64
2022/10/10 02:11:04;;;;;;;7.95;5.32;;;9.00;99.90;;;;;;5078778;28;20065;-64
2022/10/10 02:13:43;;;;;;;7.50;5.78;;;8.90;99.90;;;;;;5093124;28;20389;-64
2022/10/10 02:16:33;;;;;;;8.27;4.88;;;8.90;99.90;;;;;;5093078;28;20035;-64
2022/10/10 02:19:00;;;;;;;10.45;5.50;;;8.80;99.90;;;;;;5091788;28;20078;-64
2022/10/10 02:21:28;;;;;;;7.15;6.03;;;8.70;99.90;;;;;;5092928;28;20153;-64
2022/10/10 02:23:58;;;;;;;8.68;5.63;;;8.90;99.90;;;;;;5093400;28;20044;-64
2022/10/10 02:26:27;;;;;;;9.57;5.43;;;8.80;99.90;;;;;;5089709;28;20140;-64
2022/10/10 02:29:08;;;;;;;9.00;5.43;;;8.80;99.90;;;;;;5081539;28;20498;-64
2022/10/10 02:31:39;;;;;;;8.40;6.03;;;8.80;99.90;;;;;;5091629;28;20047;-64
2022/10/10 02:34:14;;;;;;;8.98;5.35;;;8.60;99.90;;;;;;5091992;28;20046;-64
2022/10/10 02:36:51;;;;;;;10.80;5.97;;;8.70;99.90;;;;;;5078964;28;20090;-63
2022/10/10 02:39:19;;;;;;;9.65;5.55;;;8.70;99.90;;;;;;5085812;28;20036;-63
2022/10/10 02:41:47;;;;;;;7.65;5.85;;;8.80;99.90;;;;;;5096976;28;20050;-64
2022/10/10 02:44:13;;;;;;;9.52;5.43;;;8.70;99.90;;;;;;5095648;28;20055;-64
2022/10/10 02:46:39;;;;;;;12.07;5.38;;;8.70;99.90;;;;;;5095499;28;20040;-64
2022/10/10 02:49:08;;;;;;;9.63;5.70;;;8.80;99.90;;;;;;5076666;28;20095;-64
2022/10/10 02:51:34;;;;;;;10.13;6.10;;;8.40;99.90;;;;;;5089469;28;20051;-64
2022/10/10 02:53:59;;;;;;;7.78;5.63;;;8.60;99.90;;;;;;5095655;28;20048;-64
2022/10/10 02:56:25;;;;;;;8.43;5.80;;;8.60;99.90;;;;;;5096758;28;20119;-64
2022/10/10 02:58:51;;;;;;;10.25;5.70;;;8.60;99.90;;;;;;5095434;28;20044;-63
2022/10/10 03:01:16;;;;;;;9.70;5.85;;;8.60;99.90;;;;;;5096528;28;20387;-64
2022/10/10 03:03:42;;;;;;;8.82;6.07;;;8.70;99.90;;;;;;5095436;28;20075;-64
2022/10/10 03:06:07;;;;;;;10.07;6.57;;;8.60;99.90;;;;;;5090135;28;20037;-64
2022/10/10 03:08:35;;;;;;;8.00;6.15;;;8.60;99.90;;;;;;5089224;28;20121;-63
2022/10/10 03:11:01;;;;;;;9.25;5.72;;;8.60;99.90;;;;;;5096575;28;20040;-63
2022/10/10 03:13:27;;;;;;;10.13;5.68;;;8.50;99.90;;;;;;5095083;28;20092;-64
2022/10/10 03:15:53;;;;;;;11.43;5.95;;;8.60;99.90;;;;;;5096316;28;20043;-63
2022/10/10 03:18:19;;;;;;;10.57;6.00;;;8.70;99.90;;;;;;5087423;28;20390;-64
2022/10/10 03:20:45;;;;;;;7.43;5.78;;;;;;;;;;5090232;28;20047;-63
2022/10/10 03:23:12;;;;;;;10.15;5.78;;;8.60;99.90;;;;;;5080767;28;20485;-64
2022/10/10 03:25:42;;;;;;;7.15;6.28;;;8.50;99.90;;;;;;5096371;28;20119;-64
2022/10/10 03:28:08;;;;;;;10.50;5.85;;;8.60;99.90;;;;;;5096149;28;20136;-64
2022/10/10 03:30:34;;;;;;;9.50;6.18;;;8.60;99.90;;;;;;5095207;28;20052;-63
2022/10/10 03:32:59;;;;;;;10.43;5.75;;;8.50;99.90;;;;;;5096169;28;20119;-64
2022/10/10 03:35:25;;;;;;;11.15;5.97;;;8.50;99.90;;;;;;5096220;28;20040;-64
2022/10/10 03:37:51;;;;;;;10.25;5.93;;;8.40;99.90;;;;;;5096153;28;20074;-63
2022/10/10 03:40:16;;;;;;;11.25;6.47;;;8.60;99.90;;;;;;5089033;28;20083;-64
2022/10/10 03:42:42;;;;;;;11.30;5.35;;;8.30;99.90;;;;;;5088460;28;20047;-63
2022/10/10 03:45:07;;;;;;;7.85;5.97;;;8.20;99.90;;;;;;5094453;28;20044;-64
2022/10/10 03:47:33;;;;;;;7.95;5.93;;;;;;;;;;5093460;28;20044;-64
2022/10/10 03:49:59;;;;;;;9.93;6.07;;;8.50;99.90;;;;;;5095644;28;20044;-64
2022/10/10 03:52:24;;;;;;;8.75;6.15;;;8.50;99.90;;;;;;5094350;28;20044;-64
2022/10/10 03:54:50;;;;;;;9.38;5.90;;;8.40;99.90;;;;;;5080681;28;20075;-63
2022/10/10 03:57:15;;;;;;;11.80;6.47;;;8.60;99.90;;;;;;5082319;28;20474;-63
2022/10/10 03:59:41;;;;;;;8.10;6.70;;;8.30;99.90;;;;;;5082632;28;20036;-64
2022/10/10 04:02:07;;;;;;;9.93;6.25;;;8.60;99.90;;;;;;5078489;28;20059;-64
2022/10/10 04:04:32;;;;;;;11.30;6.78;;;8.50;99.90;;;;;;5095369;28;20044;-63
2022/10/10 04:06:58;;;;;;;9.20;5.88;;;8.20;99.90;;;;;;5094411;28;20489;-63
2022/10/10 04:09:23;;;;;;;8.48;6.60;;;8.20;99.90;;;;;;5094135;28;20402;-64
2022/10/10 04:11:49;;;;;;;10.05;5.90;;;8.10;99.90;;;;;;5095438;28;20085;-63
2022/10/10 04:14:14;;;;;;;9.10;6.38;;;8.20;99.90;;;;;;5094074;28;20375;-63
2022/10/10 04:16:40;;;;;;;12.75;6.78;;;8.20;99.90;;;;;;5095495;28;20430;-64
2022/10/10 04:19:05;;;;;;;7.30;5.93;;;8.20;99.90;;;;;;5076686;28;20110;-64
2022/10/10 04:21:31;;;;;;;11.93;6.50;;;8.30;99.90;;;;;;5073749;28;20063;-63
2022/10/10 04:23:56;;;;;;;8.35;6.05;;;8.20;99.90;;;;;;5074776;28;20048;-64
2022/10/10 04:26:22;;;;;;;12.27;6.78;;;8.20;99.90;;;;;;5093517;28;20044;-63
2022/10/10 04:28:48;;;;;;;9.60;6.18;;;8.20;99.90;;;;;;5093842;28;20469;-64
2022/10/10 04:31:13;;;;;;;10.40;6.53;;;8.00;99.90;;;;;;5094779;28;20046;-63
2022/10/10 04:33:39;;;;;;;13.15;7.20;;;8.20;99.90;;;;;;5094755;28;20036;-63
2022/10/10 04:36:05;;;;;;;9.77;6.03;;;8.00;99.90;;;;;;5094919;28;20478;-64
2022/10/10 04:38:30;;;;;;;9.80;6.90;;;8.00;99.90;;;;;;5095136;28;20036;-64
2022/10/10 04:40:56;;;;;;;9.52;6.03;;;7.90;99.90;;;;;;5093457;28;20040;-64
2022/10/10 04:43:21;;;;;;;11.15;6.30;;;8.10;99.90;;;;;;5093466;28;20036;-63
2022/10/10 04:45:47;;;;;;;9.60;6.05;;;7.90;99.90;;;;;;5094821;28;20044;-64
2022/10/10 04:48:13;;;;;;;8.65;6.53;;;8.10;99.90;;;;;;5094532;28;20051;-64
2022/10/10 04:50:39;;;;;;;11.80;6.75;;;7.90;99.90;;;;;;5094674;28;20025;-63
2022/10/10 04:53:05;;;;;;;12.40;7.60;;;8.00;99.90;;;;;;5094457;28;20040;-64
2022/10/10 04:55:30;;;;;;;12.10;7.10;;;8.10;99.90;;;;;;5094782;28;20059;-64
2022/10/10 04:57:56;;;;;;;10.45;6.97;;;8.00;99.90;;;;;;5094618;28;20040;-63
2022/10/10 05:00:21;;;;;;;10.38;6.38;;;7.90;99.90;;;;;;5093115;28;20055;-64
2022/10/10 05:02:47;;;;;;;11.85;6.63;;;8.20;99.90;;;;;;5093129;28;20048;-64
2022/10/10 05:05:13;;;;;;;10.65;6.68;;;7.90;99.90;;;;;;5093306;28;20563;-63
2022/10/10 05:07:38;;;;;;;10.20;6.70;;;7.80;99.90;;;;;;5093030;28;20124;-64
2022/10/10 05:10:05;;;;;;;10.07;6.72;;;7.80;99.90;;;;;;5094062;28;20039;-64
2022/10/10 05:12:31;;;;;;;9.20;6.55;;;7.80;99.90;;;;;;5072507;28;20491;-63
2022/10/10 05:14:57;;;;;;;10.82;6.57;;;7.90;99.90;;;;;;5074154;28;20111;-63
2022/10/10 05:17:22;;;;;;;10.63;6.70;;;7.90;99.90;;;;;;5072550;28;20048;-63
2022/10/10 05:19:48;;;;;;;10.68;7.32;;;7.90;99.90;;;;;;5082875;28;20040;-63
2022/10/10 05:22:14;;;;;;;12.18;6.28;;;7.90;99.90;;;;;;5092614;28;20147;-64
2022/10/10 05:24:39;;;;;;;12.60;7.40;;;7.90;99.90;;;;;;5092728;28;20040;-64
2022/10/10 05:27:05;;;;;;;10.45;6.40;;;8.00;99.90;;;;;;5092583;28;20067;-64
2022/10/10 05:29:30;;;;;;;13.73;7.18;;;7.70;99.90;;;;;;5092433;28;20123;-64
2022/10/10 05:31:56;;;;;;;11.50;6.93;;;7.80;99.90;;;;;;5093712;28;20039;-64
2022/10/10 05:34:22;;;;;;;9.77;7.00;;;7.80;99.90;;;;;;5092354;28;20441;-65
2022/10/10 05:36:47;;;;;;;10.18;7.28;;;8.10;99.90;;;;;;5093840;28;20036;-64
2022/10/10 05:39:13;;;;;;;10.50;7.15;;;7.90;99.90;;;;;;5093708;28;20040;-64
2022/10/10 05:41:38;;;;;;;12.88;7.72;;;7.90;99.90;;;;;;5089374;28;20032;-63
2022/10/10 05:44:04;;;;;;;11.82;7.20;;;7.90;99.90;;;;;;5072012;28;20082;-64
2022/10/10 05:46:30;;;;;;;12.82;7.05;;;7.80;99.90;;;;;;5074167;28;20059;-64
2022/10/10 05:48:55;;;;;;;14.57;9.07;;;7.90;99.90;;;;;;5084184;28;20055;-64
2022/10/10 05:51:21;;;;;;;11.80;7.10;;;7.80;99.90;;;;;;5086124;28;20047;-64
2022/10/10 05:53:47;;;;;;;11.55;7.43;;;7.80;99.90;;;;;;5092013;28;20127;-64
2022/10/10 05:56:15;;;;;;;12.75;7.80;;;7.80;99.90;;;;;;5093650;28;20032;-64
2022/10/10 05:58:41;;;;;;;8.45;6.35;;;7.80;99.90;;;;;;5093481;28;20043;-64
2022/10/10 06:01:07;;;;;;;10.95;8.02;;;7.80;99.90;;;;;;5092036;28;20494;-64
2022/10/10 06:03:34;;;;;;;13.10;7.40;;;7.80;99.90;;;;;;5091889;28;20473;-64
2022/10/10 06:06:00;;;;;;;9.05;6.68;;;7.80;99.90;;;;;;5093515;28;20051;-64
2022/10/10 06:08:26;;;;;;;11.18;7.22;;;7.90;99.90;;;;;;5093457;28;20040;-64
2022/10/10 06:10:52;;;;;;;12.13;6.55;;;7.80;99.90;;;;;;5092943;28;20129;-63
2022/10/10 06:13:19;;;;;;;10.32;7.25;;;7.90;99.90;;;;;;5093002;28;20078;-64
2022/10/10 06:15:49;;;;;;;9.45;6.75;;;7.80;99.90;;;;;;5093136;28;20392;-63
2022/10/10 06:18:14;;;;;;;13.15;6.72;;;7.90;99.90;;;;;;5091875;28;20080;-63
2022/10/10 06:20:40;;;;;;;9.60;6.93;;;7.90;99.90;;;;;;5074934;28;20032;-64
2022/10/10 06:23:07;;;;;;;9.75;6.88;;;8.00;99.90;;;;;;5097029;28;20043;-64
2022/10/10 06:25:34;;;;;;;14.80;8.05;;;8.10;99.90;;;;;;5101561;28;20467;-64
2022/10/10 06:28:00;;;;;;;10.27;6.80;;;8.10;99.90;;;;;;5091855;28;20055;-64
2022/10/10 06:30:26;;;;;;;8.70;6.18;;;8.10;99.90;;;;;;5091690;28;20040;-64
2022/10/10 06:32:52;;;;;;;9.73;7.15;;;8.10;99.90;;;;;;5094671;28;20063;-64
2022/10/10 06:35:18;;;;;;;10.77;7.32;;;;;;;;;;5090534;28;20131;-65
2022/10/10 06:37:43;;;;;;;12.15;6.78;;;8.40;99.90;;;;;;5072675;28;20036;-65
2022/10/10 06:40:09;;;;;;;11.40;6.97;;;8.30;99.90;;;;;;5092214;28;20040;-64
2022/10/10 06:42:35;;;;;;;14.77;7.05;;;8.40;99.90;;;;;;5086560;28;20045;-65
2022/10/10 06:45:00;;;;;;;8.23;6.55;;;8.50;99.90;;;;;;5077710;28;20115;-64
2022/10/10 06:47:26;;;;;;;10.95;7.03;;;8.50;99.90;;;;;;5082810;28;20402;-64
2022/10/10 06:49:52;;;;;;;10.13;6.93;;;8.60;99.90;;;;;;5090714;28;20405;-64
2022/10/10 06:52:18;;;;;;;12.68;7.63;;;8.70;99.90;;;;;;5085938;28;20044;-65
2022/10/10 06:54:44;;;;;;;13.23;7.13;;;8.60;99.90;;;;;;5084248;28;20024;-65
2022/10/10 06:57:09;;;;;;;11.40;6.75;;;8.70;99.90;;;;;;5080100;28;20043;-64
2022/10/10 06:59:35;;;;;;;9.75;6.22;;;8.70;99.90;;;;;;5078485;28;20040;-64
2022/10/10 07:02:01;;;;;;;11.48;7.38;;;;;;;;;;5085938;28;20051;-65
2022/10/10 07:04:27;;;;;;;12.10;7.03;;;8.90;99.90;;;;;;5089485;28;20044;-65
2022/10/10 07:06:52;;;;;;;11.95;7.93;;;8.80;99.90;;;;;;5082635;28;20497;-65
2022/10/10 07:09:19;;;;;;;10.00;6.90;;;;;;;;;;5090311;28;20044;-65
2022/10/10 07:11:45;;;;;;;13.98;6.78;;;9.00;99.90;;;;;;5101787;28;20039;-65
2022/10/10 07:14:13;;;;;;;10.85;6.80;;;;;;;;;;5091437;28;20043;-65
2022/10/10 07:16:39;;;;;;;11.93;6.53;;;9.20;99.90;;;;;;5091767;28;20043;-64
2022/10/10 07:19:05;;;;;;;12.52;6.75;;;9.20;99.90;;;;;;5091864;28;20114;-64
2022/10/10 07:21:31;;;;;;;11.52;7.10;;;9.50;99.90;;;;;;5092802;28;20062;-64
2022/10/10 07:23:57;;;;;;;9.20;6.20;;;;;;;;;;5081904;28;20455;-64
2022/10/10 07:26:26;;;;;;;12.90;7.07;;;9.50;99.90;;;;;;5087805;28;20128;-63
2022/10/10 07:28:52;;;;;;;9.88;6.93;;;9.50;99.90;;;;;;5074983;28;20040;-64
2022/10/10 07:31:18;;;;;;;10.15;6.70;;;;;;;;;;5085566;28;20043;-64
2022/10/10 07:33:47;;;;;;;10.95;6.40;;;9.80;99.90;;;;;;5073473;28;20528;-64
2022/10/10 07:36:13;;;;;;;10.02;6.53;;;10.20;99.90;;;;;;5087729;28;20051;-63
2022/10/10 07:38:39;;;;;;;8.48;6.93;;;10.40;99.90;;;;;;5087491;28;20063;-64
2022/10/10 07:41:06;;;;;;;12.55;7.53;;;10.70;99.90;;;;;;5091137;28;20036;-64
2022/10/10 07:43:31;;;;;;;10.05;7.35;;;10.80;99.90;;;;;;5100413;28;20035;-63
2022/10/10 07:45:57;;;;;;;12.80;6.75;;;10.80;99.90;;;;;;5096752;28;20042;-64
2022/10/10 07:48:23;;;;;;;11.57;6.38;;;;;;;;;;5092802;28;20032;-65
2022/10/10 07:50:49;;;;;;;10.57;6.78;;;;;;;;;;5093863;28;20047;-64
2022/10/10 07:53:15;;;;;;;9.68;6.43;;;11.40;99.90;;;;;;5094335;28;20048;-64
2022/10/10 07:55:41;;;;;;;9.55;6.03;;;11.40;99.90;;;;;;5094914;28;20032;-64
2022/10/10 07:58:09;;;;;;;11.77;6.70;;;11.40;99.90;;;;;;5094381;28;20089;-65
2022/10/10 08:00:35;;;;;;;13.38;6.93;;;11.30;99.90;;;;;;5094250;28;20105;-65
2022/10/10 08:03:01;;;;;;;8.70;6.18;;;11.40;99.90;;;;;;5089277;28;20120;-64
2022/10/10 08:05:26;;;;;;;13.32;6.80;;;11.50;99.90;;;;;;5085072;28;20131;-65
2022/10/10 08:07:52;;;;;;;10.55;6.65;;;11.50;99.90;;;;;;5075392;28;20639;-64
2022/10/10 08:10:18;;;;;;;12.27;6.60;;;;;;;;;;5078407;28;20036;-64
2022/10/10 08:12:44;;;;;;;9.73;7.00;;;;;;;;;;5077169;28;20040;-65
2022/10/10 08:15:10;;;;;;;12.77;6.90;;;;;;;;;;5074802;28;20403;-65
2022/10/10 08:17:36;;;;;;;10.82;6.97;;;12.10;99.90;;;;;;5093140;28;20177;-64
2022/10/10 08:20:02;;;;;;;13.88;6.53;;;12.40;99.90;;;;;;5094292;28;20089;-65
2022/10/10 08:22:28;;;;;;;10.45;5.90;;;12.90;99.90;;;;;;5078472;28;20044;-64
2022/10/10 08:24:53;;;;;;;12.65;6.72;;;13.40;99.90;;;;;;5074028;28;20045;-64
2022/10/10 08:27:19;;;;;;;12.05;7.20;;;13.50;99.90;;;;;;5073892;28;20064;-65
2022/10/10 08:29:45;;;;;;;9.45;6.15;;;13.50;99.90;;;;;;5087361;28;20486;-65
2022/10/10 08:32:11;;;;;;;9.05;6.18;;;13.50;99.90;;;;;;5083634;28;20512;-65
2022/10/10 08:34:36;;;;;;;10.98;6.32;;;13.70;99.90;;;;;;5072495;28;20040;-64
2022/10/10 08:37:02;;;;;;;12.77;7.47;;;13.80;99.90;;;;;;5081772;28;20105;-64
2022/10/10 08:39:28;;;;;;;8.32;6.20;;;13.40;99.90;;;;;;5079542;28;20040;-64
2022/10/10 08:41:59;;;;;;;11.27;6.70;;;13.30;99.90;;;;;;5072876;28;20044;-64
2022/10/10 08:44:43;;;;;;;9.05;6.63;;;13.30;99.90;;;;;;5092201;28;20032;-64
2022/10/10 08:47:08;;;;;;;8.77;6.00;;;13.70;99.90;;;;;;5080222;28;20508;-64
2022/10/10 08:49:37;;;;;;;12.32;6.22;;;13.80;99.90;;;;;;5093336;28;20032;-66
2022/10/10 08:52:37;;;;;;;11.25;6.15;;;14.20;99.90;;;;;;5094534;28;20110;-64
2022/10/10 08:55:06;;;;;;;11.20;6.03;;;14.30;99.90;;;;;;5076950;28;20094;-63
2022/10/10 08:57:40;;;;;;;9.00;6.28;;;14.70;99.90;;;;;;5071325;28;20037;-65
2022/10/10 09:00:11;;;;;;;9.60;5.97;;;14.60;99.90;;;;;;5087305;28;20044;-65
2022/10/10 09:02:48;;;;;;;8.13;5.53;;;15.70;99.90;;;;;;5073349;28;20064;-65
2022/10/10 09:05:22;;;;;;;8.93;5.53;;;16.10;99.90;;;;;;5075995;28;20049;-65
2022/10/10 09:08:00;;;;;;;9.18;5.47;;;16.90;99.90;;;;;;5086065;28;20490;-65
2022/10/10 09:10:55;;;;;;;10.23;5.63;;;16.50;99.90;;;;;;5079777;28;20075;-65
2022/10/10 09:13:35;;;;;;;8.27;5.28;;;16.00;99.90;;;;;;5088677;28;20040;-65
2022/10/10 09:16:36;;;;;;;7.90;5.18;;;16.00;99.90;;;;;;5089549;28;20058;-65
2022/10/10 09:19:28;;;;;;;9.68;5.78;;;16.50;99.90;;;;;;5076398;28;20032;-66
2022/10/10 09:21:59;;;;;;;9.70;5.88;;;17.00;99.90;;;;;;5086172;28;20036;-65
2022/10/10 09:24:35;;;;;;;11.75;6.30;;;16.70;99.90;;;;;;5078194;28;20442;-66
2022/10/10 09:27:04;;;;;;;6.93;5.45;;;16.70;99.90;;;;;;5073871;28;20089;-66
2022/10/10 09:29:38;;;;;;;8.38;5.32;;;16.60;99.90;;;;;;5073252;28;20037;-66
2022/10/10 09:32:18;;;;;;;12.80;5.40;;;16.20;99.90;;;;;;5093456;28;20036;-65
2022/10/10 09:35:11;;;;;;;11.20;5.97;;;16.20;99.90;;;;;;5097670;27;20031;-65
2022/10/10 09:37:39;;;;;;;8.30;5.43;;;16.00;99.90;;;;;;5081113;28;20096;-65
2022/10/10 09:40:28;;;;;;;10.20;5.93;;;16.00;99.90;;;;;;5076243;28;20041;-65
2022/10/10 09:42:55;;;;;;;12.20;5.85;;;16.10;99.90;;;;;;5079269;28;20128;-66
2022/10/10 09:45:30;;;;;;;7.85;5.40;;;16.10;99.90;;;;;;5082556;28;20047;-66
2022/10/10 09:47:55;;;;;;;;;;;16.20;99.90;;;;;;5075598;28;20063;-66
2022/10/10 09:50:22;;;;;;;10.07;6.20;;;15.70;99.90;;;;;;5078773;28;20378;-66
2022/10/10 09:52:48;;;;;;;8.88;5.68;;;;;;;;;;5089597;28;20047;-66
2022/10/10 09:55:27;;;;;;;8.48;5.55;;;15.50;99.90;;;;;;5099358;28;20039;-66
2022/10/10 09:57:56;;;;;;;9.95;6.07;;;15.70;99.90;;;;;;5101237;28;20103;-66
2022/10/10 10:00:31;;;;;;;8.95;6.45;;;15.10;99.90;;;;;;5101112;28;20066;-65
2022/10/10 10:03:11;;;;;;;14.73;6.90;;;15.40;99.90;;;;;;5076071;28;20492;-65
2022/10/10 10:05:39;;;;;;;10.77;6.65;;;15.50;99.90;;;;;;5081974;28;20509;-65
2022/10/10 10:08:16;;;;;;;11.75;6.93;;;15.90;99.90;;;;;;5088105;28;20070;-65
2022/10/10 10:10:42;;;;;;;10.80;6.53;;;16.50;99.90;;;;;;5079761;28;20039;-64
2022/10/10 10:13:13;;;;;;;12.25;6.50;;;16.60;99.90;;;;;;5090048;28;20131;-65
2022/10/10 10:15:51;;;;;;;11.68;6.60;;;16.30;99.90;;;;;;5098378;28;20040;-65
2022/10/10 10:18:16;;;;;;;10.55;6.25;;;16.10;99.90;;;;;;5101610;28;20040;-65
2022/10/10 10:20:48;;;;;;;10.60;5.65;;;15.90;99.90;;;;;;5084015;28;20040;-65
2022/10/10 10:23:24;;;;;;;11.88;6.63;;;16.00;99.90;;;;;;5091483;28;20040;-65
2022/10/10 10:26:17;;;;;;;14.02;7.15;;;15.70;99.90;;;;;;5092117;28;20394;-65
2022/10/10 10:28:44;;;;;;;12.15;6.85;;;15.50;99.90;;;;;;5080990;28;20052;-65
2022/10/10 10:31:23;;;;;;;9.30;6.40;;;15.60;99.90;;;;;;5085381;28;20036;-65
2022/10/10 10:33:54;;;;;;;9.95;6.40;;;15.00;99.90;;;;;;5093315;28;20040;-65
2022/10/10 10:36:45;;;;;;;11.75;6.43;;;15.20;99.90;;;;;;5092796;28;20498;-65
2022/10/10 10:39:20;;;;;;;10.10;6.95;;;14.70;99.90;;;;;;5084639;28;20037;-65
2022/10/10 10:41:46;;;;;;;14.52;6.82;;;;;;;;;;5100760;28;20122;-65
2022/10/10 10:44:21;;;;;;;13.57;6.70;;;14.60;99.90;;;;;;5085881;28;20123;-65
2022/10/10 10:47:21;;;;;;;9.82;6.40;;;14.70;99.90;;;;;;5091519;28;20054;-66
2022/10/10 10:50:02;;;;;;;11.55;7.00;;;14.50;99.90;;;;;;5042646;28;20061;-65
2022/10/10 10:52:50;;;;;;;11.63;6.93;;;14.50;99.90;;;;;;5082644;28;20109;-66
2022/10/10 10:55:23;;;;;;;15.50;7.10;;;14.50;99.90;;;;;;5079290;28;20046;-66
2022/10/10 10:58:11;;;;;;;13.82;7.45;;;14.40;99.90;;;;;;5082121;28;20146;-66
2022/10/10 11:01:01;;;;;;;14.57;7.65;;;14.30;99.90;;;;;;5084527;28;20124;-66
2022/10/10 11:03:39;;;;;;;14.02;7.85;;;14.40;99.90;;;;;;5075515;28;20049;-65
2022/10/10 11:06:37;;;;;;;11.48;7.30;;;14.30;99.90;;;;;;5082448;28;20041;-65
2022/10/10 11:09:06;;;;;;;43.63;9.43;;;14.30;99.90;;;;;;5083997;28;20559;-64
2022/10/10 11:12:04;;;;;;;12.32;6.88;;;14.20;99.90;;;;;;5076576;28;20048;-65
2022/10/10 11:14:57;;;;;;;15.80;8.68;;;14.10;99.90;;;;;;5076765;28;20055;-65
2022/10/10 11:17:33;;;;;;;14.38;7.97;;;14.20;99.90;;;;;;5081469;28;20048;-66
2022/10/10 11:20:24;;;;;;;18.55;8.95;;;13.90;99.90;;;;;;5076862;28;20052;-65
2022/10/10 11:23:18;;;;;;;13.85;8.00;;;14.10;99.90;;;;;;5093103;28;20115;-66
2022/10/10 11:25:54;;;;;;;10.27;7.30;;;13.90;99.90;;;;;;5095581;28;20422;-66
2022/10/10 11:28:25;;;;;;;13.00;7.85;;;13.90;99.90;;;;;;5081154;28;20032;-67
2022/10/10 11:31:00;;;;;;;15.05;7.82;;;13.80;99.90;;;;;;5095097;28;20032;-66
2022/10/10 11:33:34;;;;;;;12.43;8.40;;;13.80;99.90;;;;;;5066298;28;20051;-65
2022/10/10 11:36:17;;;;;;;13.17;8.00;;;13.90;99.90;;;;;;5096246;28;20043;-66
2022/10/10 11:39:16;;;;;;;13.80;7.65;;;13.70;99.90;;;;;;5080808;28;20036;-66
2022/10/10 11:41:56;;;;;;;14.95;8.05;;;13.90;99.90;;;;;;5094203;28;20085;-65
2022/10/10 11:44:32;;;;;;;12.95;8.35;;;13.90;99.90;;;;;;5094891;28;20377;-65
2022/10/10 11:47:18;;;;;;;13.45;8.40;;;13.80;99.90;;;;;;5094521;28;20040;-65
2022/10/10 11:50:14;;;;;;;10.98;7.60;;;14.00;99.90;;;;;;5090735;28;20037;-65
2022/10/10 11:52:50;;;;;;;11.73;7.47;;;13.90;99.90;;;;;;5082940;28;20407;-65
2022/10/10 11:55:32;;;;;;;14.38;8.60;;;13.70;99.90;;;;;;5085698;28;20047;-63
2022/10/10 11:58:06;;;;;;;16.08;8.52;;;13.80;99.90;;;;;;5094395;28;20120;-62
2022/10/10 12:00:41;;;;;;;16.10;8.95;;;14.00;99.90;;;;;;5088113;28;20053;-65
2022/10/10 12:03:08;;;;;;;16.30;8.40;;;13.80;99.90;;;;;;5078238;28;20090;-66
2022/10/10 12:05:38;;;;;;;12.45;8.82;;;14.00;99.90;;;;;;5092412;28;20036;-66
2022/10/10 12:08:07;;;;;;;12.32;8.40;;;13.90;99.90;;;;;;5084753;28;20466;-66
2022/10/10 12:10:45;;;;;;;20.80;9.00;;;13.90;99.90;;;;;;5077365;28;20097;-66
2022/10/10 12:13:36;;;;;;;13.60;8.77;;;14.00;99.90;;;;;;5080566;28;20134;-66
2022/10/10 12:16:06;;;;;;;15.20;9.18;;;14.00;99.90;;;;;;5075230;28;20040;-66
2022/10/10 12:18:44;;;;;;;15.50;9.63;;;13.90;99.90;;;;;;5073481;28;20397;-65
2022/10/10 12:21:14;;;;;;;18.98;9.98;;;14.00;99.90;;;;;;5075311;28;20039;-63
2022/10/10 12:23:42;;;;;;;20.30;9.80;;;14.10;99.90;;;;;;5079995;28;20119;-65
2022/10/10 12:26:20;;;;;;;19.17;10.30;;;14.10;99.90;;;;;;5094334;28;20040;-65
2022/10/10 12:29:04;;;;;;;12.77;9.73;;;14.00;99.90;;;;;;5093969;28;20085;-65
2022/10/10 12:31:30;;;;;;;19.90;9.57;;;13.90;99.90;;;;;;5092828;28;20126;-65
2022/10/10 12:34:04;;;;;;;16.48;10.13;;;14.10;99.90;;;;;;5086047;28;20127;-65
2022/10/10 12:36:30;;;;;;;13.38;9.05;;;14.00;99.90;;;;;;5080103;28;20067;-64
2022/10/10 12:39:04;;;;;;;14.52;10.32;;;13.90;99.90;;;;;;5085793;28;20055;-65
2022/10/10 12:41:48;;;;;;;17.05;9.93;;;14.00;99.90;;;;;;5073361;28;20048;-66
2022/10/10 12:44:13;;;;;;;24.63;10.18;;;14.20;99.90;;;;;;5080687;28;20062;-65
2022/10/10 12:46:40;;;;;;;16.77;10.13;;;14.10;99.90;;;;;;5085032;28;20031;-66
2022/10/10 12:49:21;;;;;;;17.52;9.77;;;13.80;99.90;;;;;;5085283;28;20397;-66
2022/10/10 12:52:01;;;;;;;18.77;9.85;;;14.10;99.90;;;;;;5078664;28;20393;-66
2022/10/10 12:54:31;;;;;;;13.43;8.80;;;14.10;99.90;;;;;;5082558;28;20048;-65
2022/10/10 12:57:30;;;;;;;16.45;10.38;;;13.90;99.90;;;;;;5074802;28;20042;-64
2022/10/10 12:59:57;;;;;;;22.90;9.93;;;13.90;99.90;;;;;;5076582;28;20452;-65
2022/10/10 13:02:26;;;;;;;17.10;9.38;;;14.00;99.90;;;;;;5080743;28;20071;-65
2022/10/10 13:04:55;;;;;;;18.38;10.35;;;13.80;99.90;;;;;;5077151;28;20119;-65
2022/10/10 13:07:23;;;;;;;18.67;9.38;;;13.80;99.90;;;;;;5078128;28;20048;-65
2022/10/10 13:09:51;;;;;;;18.70;10.32;;;13.70;99.90;;;;;;5074969;28;20043;-64
2022/10/10 13:12:20;;;;;;;24.80;10.45;;;13.80;99.90;;;;;;5075652;28;20036;-65